Time;durP1;ratioP1;P1;durP2;ratioP2;P2;SDS_P1;SDS_P2;PMS_P1;PMS_P2;Temp;Humidity;BMP_temperature;BMP_pressure;BME280_temperature;BME280_humidity;BME280_pressure;Samples;Min_cycle;Max_cycle;Signal;HPM_P1;HPM_P2
2022/04/27 00:00:08;;;;;;;6.53;5.90;;;;;;;-145.68;100.00;63218.00;10451088;28;20624;-53
2022/04/27 00:06:13;;;;;;;7.00;5.10;;;;;;;-145.68;100.00;63218.00;10451993;28;20188;-56
2022/04/27 00:12:12;;;;;;;7.70;5.33;;;;;;;-145.68;100.00;63218.00;10452116;28;20208;-56
2022/04/27 00:18:11;;;;;;;8.53;5.70;;;;;;;-145.68;100.00;63218.00;10451436;28;20220;-53
2022/04/27 00:24:10;;;;;;;6.33;5.37;;;;;;;-145.68;100.00;63218.00;10451333;28;20693;-54
2022/04/27 00:30:09;;;;;;;6.60;5.50;;;;;;;-145.68;100.00;63218.00;10491329;28;20204;-53
2022/04/27 00:36:08;;;;;;;7.40;4.50;;;;;;;-145.68;100.00;63218.00;10493010;28;20281;-53
2022/04/27 00:42:14;;;;;;;10.07;5.37;;;;;;;-145.68;100.00;63218.00;10492949;28;20797;-53
2022/04/27 00:48:13;;;;;;;7.43;5.37;;;;;;;-145.68;100.00;63218.00;10492775;28;20211;-54
2022/04/27 00:54:12;;;;;;;8.40;5.53;;;;;;;-145.68;100.00;63218.00;10492941;28;20188;-53
2022/04/27 01:00:11;;;;;;;7.60;5.00;;;;;;;-145.68;100.00;63218.00;10492741;28;20207;-53
2022/04/27 01:06:11;;;;;;;6.87;5.07;;;;;;;-145.68;100.00;63218.00;10474041;28;20221;-53
2022/04/27 01:12:10;;;;;;;6.90;5.10;;;;;;;-145.68;100.00;63218.00;10476380;28;20278;-58
2022/04/27 01:18:19;;;;;;;11.23;5.40;;;;;;;-145.68;100.00;63218.00;10481528;28;20218;-58
2022/04/27 01:24:24;;;;;;;5.67;4.87;;;;;;;-145.68;100.00;63218.00;10481457;28;20191;-59
2022/04/27 01:30:23;;;;;;;6.53;5.00;;;;;;;-145.68;100.00;63218.00;10481614;28;20187;-57
2022/04/27 01:36:21;;;;;;;6.37;4.97;;;;;;;-145.68;100.00;63218.00;10481178;28;20219;-54
2022/04/27 01:42:20;;;;;;;8.67;6.23;;;;;;;-145.68;100.00;63218.00;10480913;28;20203;-55
2022/04/27 01:48:19;;;;;;;6.17;4.87;;;;;;;-145.68;100.00;63218.00;10498609;28;20697;-55
2022/04/27 01:54:18;;;;;;;7.40;5.60;;;;;;;-145.68;100.00;63218.00;10498604;28;20268;-56
2022/04/27 02:00:23;;;;;;;6.50;5.67;;;;;;;-145.68;100.00;63218.00;10480439;28;20231;-57
2022/04/27 02:06:23;;;;;;;7.10;5.03;;;;;;;-145.68;100.00;63218.00;10479529;28;20249;-56
2022/04/27 02:12:22;;;;;;;6.30;5.67;;;;;;;-145.68;100.00;63218.00;10479811;28;20188;-56
2022/04/27 02:18:36;;;;;;;7.63;6.30;;;;;;;-145.68;100.00;63218.00;10479237;28;20226;-57
2022/04/27 02:24:36;;;;;;;6.87;5.83;;;;;;;-145.68;100.00;63218.00;10478159;28;20215;-56
2022/04/27 02:30:35;;;;;;;6.70;5.07;;;;;;;-145.68;100.00;63218.00;10479253;28;20191;-54
2022/04/27 02:36:34;;;;;;;9.13;5.90;;;;;;;-145.68;100.00;63218.00;10496590;28;20797;-57
2022/04/27 02:42:33;;;;;;;11.00;5.07;;;;;;;-145.68;100.00;63218.00;10478442;28;20196;-54
2022/04/27 02:48:32;;;;;;;4.87;4.17;;;;;;;-145.68;100.00;63218.00;10478158;28;20214;-53
2022/04/27 02:54:33;;;;;;;6.70;5.20;;;;;;;-145.68;100.00;63218.00;10496070;28;20260;-56
2022/04/27 03:00:36;;;;;;;7.23;4.17;;;;;;;-145.68;100.00;63218.00;10477794;28;20211;-56
2022/04/27 03:06:39;;;;;;;8.83;5.50;;;;;;;-145.68;100.00;63218.00;10477839;28;20219;-56
2022/04/27 03:12:38;;;;;;;7.70;5.70;;;;;;;-145.68;100.00;63218.00;10477446;28;20343;-54
2022/04/27 03:18:39;;;;;;;9.57;5.03;;;;;;;-145.68;100.00;63218.00;10476890;28;20207;-57
2022/04/27 03:24:38;;;;;;;7.37;5.23;;;;;;;-145.68;100.00;63218.00;10476501;28;20214;-58
2022/04/27 03:30:48;;;;;;;5.93;3.77;;;;;;;-145.68;100.00;63218.00;10476871;28;20223;-58
2022/04/27 03:36:58;;;;;;;5.13;4.27;;;;;;;-145.68;100.00;63218.00;10476330;28;20209;-58
2022/04/27 03:42:57;;;;;;;9.27;5.50;;;;;;;-145.68;100.00;63218.00;10476355;28;20224;-58
2022/04/27 03:48:57;;;;;;;5.10;4.43;;;;;;;-145.68;100.00;63218.00;10476124;28;20214;-58
2022/04/27 03:55:00;;;;;;;26.80;14.00;;;;;;;-145.68;100.00;63218.00;10476079;28;20213;-56
2022/04/27 04:00:59;;;;;;;20.07;10.63;;;;;;;-145.68;100.00;63218.00;10475876;28;20221;-58
2022/04/27 04:06:58;;;;;;;27.13;12.97;;;;;;;-145.68;100.00;63218.00;10475923;28;20834;-58
2022/04/27 04:12:58;;;;;;;23.27;10.90;;;;;;;-145.68;100.00;63218.00;10476113;28;20567;-59
2022/04/27 04:19:11;;;;;;;38.37;20.37;;;;;;;-145.68;100.00;63218.00;10475546;28;20309;-60
2022/04/27 04:31:48;;;;;;;40.33;19.03;;;;;;;-145.68;100.00;63218.00;10475668;28;20193;-58
2022/04/27 04:37:57;;;;;;;43.00;18.90;;;;;;;-145.68;100.00;63218.00;10493252;28;20218;-58
2022/04/27 04:43:58;;;;;;;33.93;16.40;;;;;;;-145.68;100.00;63218.00;10475319;28;20194;-58
2022/04/27 04:49:59;;;;;;;56.80;21.80;;;;;;;-145.68;100.00;63218.00;10481086;28;20184;-59
2022/04/27 04:56:16;;;;;;;58.50;24.63;;;;;;;-145.68;100.00;63218.00;10500891;28;20211;-58
2022/04/27 05:02:36;;;;;;;16.97;8.23;;;;;;;-145.68;100.00;63218.00;10481932;28;20199;-59
2022/04/27 05:08:56;;;;;;;20.57;9.93;;;;;;;-145.68;100.00;63218.00;10499181;28;20737;-58
2022/04/27 05:15:17;;;;;;;50.30;18.53;;;;;;;-145.68;100.00;63218.00;10480298;28;20233;-59
2022/04/27 05:21:26;;;;;;;79.27;26.50;;;;;;;-145.68;100.00;63218.00;10480886;28;20238;-60
2022/04/27 05:27:37;;;;;;;53.70;18.17;;;;;;;-145.68;100.00;63218.00;10428601;28;20266;-59
2022/04/27 05:33:40;;;;;;;48.50;29.77;;;;;;;-145.68;100.00;63218.00;10416695;28;20200;-60
2022/04/27 05:40:08;;;;;;;5.53;3.90;;;;;;;-145.68;100.00;63218.00;10413241;28;20243;-58
2022/04/27 05:46:25;;;;;;;13.07;7.77;;;;;;;-145.68;100.00;63218.00;10415150;28;20208;-60
2022/04/27 05:52:49;;;;;;;7.63;4.07;;;;;;;-145.68;100.00;63218.00;10415051;28;20188;-59
2022/04/27 05:59:09;;;;;;;8.47;3.43;;;;;;;-145.68;100.00;63218.00;10414450;28;20232;-57
2022/04/27 06:05:17;;;;;;;5.60;4.13;;;;;;;-145.68;100.00;63218.00;10411404;28;20235;-56
2022/04/27 06:11:16;;;;;;;5.10;3.43;;;;;;;-145.68;100.00;63218.00;10412115;28;20220;-55
2022/04/27 06:17:53;;;;;;;5.20;3.33;;;;;;;-145.68;100.00;63218.00;10414984;28;20240;-54
2022/04/27 06:23:54;;;;;;;3.57;3.20;;;;;;;-145.68;100.00;63218.00;10413923;28;20272;-54
2022/04/27 06:29:53;;;;;;;3.40;2.90;;;;;;;-145.68;100.00;63218.00;10533789;23;20291;-54
2022/04/27 06:35:52;;;;;;;4.23;3.00;;;;;;;-145.68;100.00;63218.00;10520646;28;20228;-57
2022/04/27 06:41:51;;;;;;;3.67;2.73;;;;;;;-145.68;100.00;63218.00;10520095;28;20594;-55
2022/04/27 06:48:05;;;;;;;5.13;3.40;;;;;;;-145.68;100.00;63218.00;10538371;28;20206;-56
2022/04/27 06:54:22;;;;;;;3.88;3.30;;;;;;;-145.68;100.00;63218.00;10527696;28;20603;-53
2022/04/27 07:00:53;;;;;;;5.57;3.17;;;;;;;-145.68;100.00;63218.00;10496016;28;20219;-58
2022/04/27 07:06:52;;;;;;;7.65;3.20;;;;;;;-145.68;100.00;63218.00;10518083;28;20210;-59
2022/04/27 07:13:29;;;;;;;4.57;2.97;;;;;;;-145.68;100.00;63218.00;10542608;28;20206;-56
2022/04/27 07:19:36;;;;;;;3.30;2.60;;;;;;;-145.68;100.00;63218.00;10545931;28;20222;-60
2022/04/27 07:26:04;;;;;;;3.15;2.40;;;;;;;-145.68;100.00;63218.00;10532096;28;20198;-60
2022/04/27 07:32:12;;;;;;;3.80;3.10;;;;;;;-145.68;100.00;63218.00;10487183;28;20191;-58
2022/04/27 07:44:55;;;;;;;3.47;3.17;;;;;;;-145.68;100.00;63218.00;10472851;28;20632;-59
2022/04/27 07:50:54;;;;;;;4.22;3.25;;;;;;;-145.68;100.00;63218.00;10494694;28;20187;-59
2022/04/27 07:56:53;;;;;;;4.30;3.13;;;;;;;-145.68;100.00;63218.00;10511185;28;20237;-60
2022/04/27 08:02:51;;;;;;;4.43;3.00;;;;;;;-145.68;100.00;63218.00;10507528;28;20199;-60
2022/04/27 08:08:50;;;;;;;3.30;2.60;;;;;;;-145.68;100.00;63218.00;10491959;28;20211;-61
2022/04/27 08:14:51;;;;;;;7.32;3.25;;;;;;;-145.68;100.00;63218.00;10499786;28;20891;-58
2022/04/27 08:27:08;;;;;;;5.95;3.20;;;;;;;-145.68;100.00;63218.00;10513119;28;20225;-59
2022/04/27 08:33:07;;;;;;;3.45;2.58;;;;;;;-145.68;100.00;63218.00;10500168;28;20203;-58
2022/04/27 08:39:07;;;;;;;5.78;4.15;;;;;;;-145.68;100.00;63218.00;10499543;28;20227;-56
2022/04/27 08:45:06;;;;;;;6.45;4.90;;;;;;;-145.68;100.00;63218.00;10499735;28;20187;-59
2022/04/27 08:51:13;;;;;;;5.28;4.03;;;;;;;-145.68;100.00;63218.00;10527496;28;20210;-60
2022/04/27 08:57:12;;;;;;;4.13;3.70;;;;;;;-145.68;100.00;63218.00;10528292;28;20218;-61
2022/04/27 09:03:24;;;;;;;5.55;4.00;;;;;;;-145.68;100.00;63218.00;10540395;28;20251;-62
2022/04/27 09:09:37;;;;;;;5.05;4.30;;;;;;;-145.68;100.00;63218.00;10536273;28;20285;-60
2022/04/27 09:15:36;;;;;;;5.13;4.63;;;;;;;-145.68;100.00;63218.00;10531150;28;20210;-61
2022/04/27 09:21:53;;;;;;;6.72;4.28;;;;;;;-145.68;100.00;63218.00;10511991;28;20225;-61
2022/04/27 09:28:10;;;;;;;5.40;4.50;;;;;;;-145.68;100.00;63218.00;10499281;28;20852;-60
2022/04/27 09:34:43;;;;;;;7.00;4.35;;;;;;;-145.68;100.00;63218.00;10539245;28;20664;-60
2022/04/27 09:40:41;;;;;;;6.50;4.47;;;;;;;-145.68;100.00;63218.00;10522624;28;20233;-57
2022/04/27 09:46:44;;;;;;;7.78;4.55;;;;;;;-145.68;100.00;63218.00;10512727;28;20219;-59
2022/04/27 09:52:45;;;;;;;7.95;4.60;;;;;;;-145.68;100.00;63218.00;10517458;28;20183;-61
2022/04/27 09:58:47;;;;;;;5.15;4.45;;;;;;;-145.68;100.00;63218.00;10512241;28;20698;-60
2022/04/27 10:04:46;;;;;;;6.72;4.18;;;;;;;-145.68;100.00;63218.00;10510470;28;20745;-60
2022/04/27 10:10:47;;;;;;;10.40;4.55;;;;;;;-145.68;100.00;63218.00;10533702;28;20179;-60
2022/04/27 10:16:48;;;;;;;5.45;4.13;;;;;;;-145.68;100.00;63218.00;10537870;28;20559;-60
2022/04/27 10:22:47;;;;;;;5.13;4.63;;;;;;;-145.68;100.00;63218.00;10517967;28;20333;-61
2022/04/27 10:29:00;;;;;;;9.95;5.40;;;;;;;-145.68;100.00;63218.00;10493935;28;20258;-62
2022/04/27 10:35:11;;;;;;;6.50;5.30;;;;;;;-145.68;100.00;63218.00;10501950;28;20740;-62
2022/04/27 10:41:29;;;;;;;8.40;4.60;;;;;;;-145.68;100.00;63218.00;10526180;28;20701;-62
2022/04/27 10:47:35;;;;;;;7.70;4.53;;;;;;;-145.68;100.00;63218.00;10526671;28;20210;-59
2022/04/27 10:53:41;;;;;;;6.20;5.32;;;;;;;-145.68;100.00;63218.00;10513289;28;20195;-62
2022/04/27 10:59:43;;;;;;;7.47;5.35;;;;;;;-145.68;100.00;63218.00;10512100;28;20230;-63
2022/04/27 11:05:42;;;;;;;6.03;4.93;;;;;;;-145.68;100.00;63218.00;10512712;28;20194;-63
2022/04/27 11:11:59;;;;;;;5.82;4.47;;;;;;;-145.68;100.00;63218.00;10481499;28;20540;-63
2022/04/27 11:18:02;;;;;;;5.13;4.53;;;;;;;-145.68;100.00;63218.00;10522526;28;20700;-65
2022/04/27 11:24:04;;;;;;;6.78;4.35;;;;;;;-145.68;100.00;63218.00;10533214;28;20282;-60
2022/04/27 11:30:05;;;;;;;5.82;4.60;;;;;;;-145.68;100.00;63218.00;10522431;28;20610;-62
2022/04/27 11:36:04;;;;;;;5.43;4.68;;;;;;;-145.68;100.00;63218.00;10533827;28;20221;-60
2022/04/27 11:42:12;;;;;;;5.30;4.28;;;;;;;-145.68;100.00;63218.00;10533783;28;20305;-62
2022/04/27 11:48:30;;;;;;;7.53;3.63;;;;;;;-145.68;100.00;63218.00;10513473;28;20219;-62
2022/04/27 11:54:32;;;;;;;5.97;3.45;;;;;;;-145.68;100.00;63218.00;10508122;28;20567;-63
2022/04/27 12:00:40;;;;;;;5.05;4.13;;;;;;;-145.68;100.00;63218.00;10515953;28;20283;-62
2022/04/27 12:06:42;;;;;;;6.78;5.18;;;;;;;-145.68;100.00;63218.00;10518345;28;20678;-62
2022/04/27 12:13:26;;;;;;;5.18;4.50;;;;;;;-145.68;100.00;63218.00;10514240;28;20186;-61
2022/04/27 12:19:28;;;;;;;7.72;5.82;;;;;;;-145.68;100.00;63218.00;10516265;28;20253;-62
2022/04/27 12:25:33;;;;;;;9.23;6.10;;;;;;;-145.68;100.00;63218.00;10502887;28;20195;-62
2022/04/27 12:31:38;;;;;;;5.78;4.45;;;;;;;-145.68;100.00;63218.00;10364403;28;20205;-58
2022/04/27 12:37:38;;;;;;;7.47;4.80;;;;;;;-145.68;100.00;63218.00;10367694;28;20201;-61
2022/04/27 12:44:05;;;;;;;4.93;4.50;;;;;;;-145.68;100.00;63218.00;10366251;28;20221;-62
2022/04/27 12:50:05;;;;;;;4.80;4.20;;;;;;;-145.68;100.00;63218.00;10367503;28;20759;-61
2022/04/27 12:56:09;;;;;;;8.60;6.55;;;;;;;-145.68;100.00;63218.00;10367782;28;20197;-59
2022/04/27 13:02:24;;;;;;;8.20;5.97;;;;;;;-145.68;100.00;63218.00;10367733;28;20213;-61
2022/04/27 13:08:23;;;;;;;8.90;5.50;;;;;;;-145.68;100.00;63218.00;10369465;28;20217;-61
2022/04/27 13:14:26;;;;;;;6.97;5.78;;;;;;;-145.68;100.00;63218.00;10373579;28;20243;-62
2022/04/27 13:20:25;;;;;;;7.78;6.13;;;;;;;-145.68;100.00;63218.00;10373825;28;20228;-59
2022/04/27 13:26:24;;;;;;;7.65;5.47;;;;;;;-145.68;100.00;63218.00;10373735;28;20205;-58
2022/04/27 13:32:23;;;;;;;7.78;6.47;;;;;;;-145.68;100.00;63218.00;10412635;28;20185;-57
2022/04/27 13:38:23;;;;;;;10.05;6.57;;;;;;;-145.68;100.00;63218.00;10411695;28;20205;-59
2022/04/27 13:44:21;;;;;;;10.15;5.95;;;;;;;-145.68;100.00;63218.00;10412188;28;20195;-58
2022/04/27 13:50:20;;;;;;;19.20;10.07;;;;;;;-145.68;100.00;63218.00;10411276;28;20209;-58
2022/04/27 13:56:20;;;;;;;9.73;5.93;;;;;;;-145.68;100.00;63218.00;10411182;28;20192;-58
2022/04/27 14:02:19;;;;;;;7.25;5.85;;;;;;;-145.68;100.00;63218.00;10411017;28;20211;-59
2022/04/27 14:08:18;;;;;;;9.27;6.03;;;;;;;-145.68;100.00;63218.00;10411784;28;20204;-58
2022/04/27 14:14:17;;;;;;;8.20;5.97;;;;;;;-145.68;100.00;63218.00;10409560;28;20185;-61
2022/04/27 14:20:16;;;;;;;7.88;6.22;;;;;;;-145.68;100.00;63218.00;10408386;28;20212;-57
2022/04/27 14:26:14;;;;;;;8.32;5.70;;;;;;;-145.68;100.00;63218.00;10413657;28;20570;-59
2022/04/27 14:32:13;;;;;;;6.45;5.38;;;;;;;-145.68;100.00;63218.00;10412922;28;20250;-60
2022/04/27 14:38:13;;;;;;;6.45;5.45;;;;;;;-145.68;100.00;63218.00;10412594;28;20779;-60
2022/04/27 14:44:12;;;;;;;7.22;5.35;;;;;;;-145.68;100.00;63218.00;10412754;28;20909;-61
2022/04/27 14:50:11;;;;;;;7.47;5.47;;;;;;;-145.68;100.00;63218.00;10411664;28;20220;-60
2022/04/27 14:56:10;;;;;;;7.85;5.75;;;;;;;-145.68;100.00;63218.00;10412378;28;20685;-60
2022/04/27 15:02:09;;;;;;;9.45;5.38;;;;;;;-145.68;100.00;63218.00;10411732;28;20205;-60
2022/04/27 15:08:08;;;;;;;8.07;5.18;;;;;;;-145.68;100.00;63218.00;10411713;28;20642;-57
2022/04/27 15:14:07;;;;;;;9.05;4.88;;;;;;;-145.68;100.00;63218.00;10411485;28;20199;-58
2022/04/27 15:32:42;;;;;;;8.02;4.68;;;;;;;-145.68;100.00;63218.00;10387981;28;20228;-58
2022/04/27 15:38:40;;;;;;;7.53;4.40;;;;;;;-145.68;100.00;63218.00;10407489;28;20212;-59
2022/04/27 15:44:39;;;;;;;5.80;4.78;;;;;;;-145.68;100.00;63218.00;10395262;28;20208;-59
2022/04/27 15:50:38;;;;;;;6.90;4.65;;;;;;;-145.68;100.00;63218.00;10409541;28;20213;-59
2022/04/27 15:56:37;;;;;;;6.18;4.35;;;;;;;-145.68;100.00;63218.00;10408166;28;20216;-60
2022/04/27 16:02:37;;;;;;;5.15;4.28;;;;;;;-145.68;100.00;63218.00;10406528;28;20705;-59
2022/04/27 16:08:36;;;;;;;6.72;3.97;;;;;;;-145.68;100.00;63218.00;10405886;28;20223;-61
2022/04/27 16:14:35;;;;;;;5.65;3.95;;;;;;;-145.68;100.00;63218.00;10406011;28;20736;-56
2022/04/27 16:20:34;;;;;;;4.90;4.40;;;;;;;-145.68;100.00;63218.00;10407491;28;20722;-58
2022/04/27 16:26:34;;;;;;;6.28;3.53;;;;;;;-145.68;100.00;63218.00;10410598;28;20200;-58
2022/04/27 16:32:35;;;;;;;6.85;3.90;;;;;;;-145.68;100.00;63218.00;10410716;28;20239;-58
2022/04/27 16:38:34;;;;;;;7.00;4.40;;;;;;;-145.68;100.00;63218.00;10410375;28;20221;-60
2022/04/27 16:44:34;;;;;;;11.27;4.28;;;;;;;-145.68;100.00;63218.00;10414674;28;20216;-56
2022/04/27 16:50:33;;;;;;;9.88;4.45;;;;;;;-145.68;100.00;63218.00;10416444;28;20209;-57
2022/04/27 16:56:32;;;;;;;7.63;3.97;;;;;;;-145.68;100.00;63218.00;10417626;28;20215;-61
2022/04/27 17:02:31;;;;;;;6.75;4.80;;;;;;;-145.68;100.00;63218.00;10415157;28;20220;-61
2022/04/27 17:08:30;;;;;;;7.45;4.78;;;;;;;-145.68;100.00;63218.00;10409040;28;20640;-61
2022/04/27 17:14:29;;;;;;;9.63;5.10;;;;;;;-145.68;100.00;63218.00;10416500;28;20231;-61
2022/04/27 17:20:28;;;;;;;10.68;8.48;;;;;;;-145.68;100.00;63218.00;10416705;28;20220;-61
2022/04/27 17:32:44;;;;;;;8.15;4.55;;;;;;;-145.68;100.00;63218.00;10416560;28;20184;-59
2022/04/27 17:38:43;;;;;;;7.80;5.10;;;;;;;-145.68;100.00;63218.00;10416117;28;20217;-60
2022/04/27 17:44:42;;;;;;;4.88;4.35;;;;;;;-145.68;100.00;63218.00;10415856;28;20274;-60
2022/04/27 17:50:41;;;;;;;6.03;4.57;;;;;;;-145.68;100.00;63218.00;10415797;28;20212;-60
2022/04/27 17:56:40;;;;;;;10.20;5.45;;;;;;;-145.68;100.00;63218.00;10410897;28;20211;-60
2022/04/27 18:02:39;;;;;;;6.43;5.35;;;;;;;-145.68;100.00;63218.00;10412966;28;20590;-59
2022/04/27 18:08:39;;;;;;;17.20;11.88;;;;;;;-145.68;100.00;63218.00;10411930;28;20228;-60
2022/04/27 18:14:38;;;;;;;28.58;19.00;;;;;;;-145.68;100.00;63218.00;10411266;28;20279;-59
2022/04/27 18:20:37;;;;;;;5.47;4.70;;;;;;;-145.68;100.00;63218.00;10411875;28;20644;-57
2022/04/27 18:26:36;;;;;;;6.78;3.90;;;;;;;-145.68;100.00;63218.00;10411833;28;20227;-54
2022/04/27 18:32:35;;;;;;;6.53;4.93;;;;;;;-145.68;100.00;63218.00;10446413;22;20235;-59
2022/04/27 18:38:34;;;;;;;5.23;3.97;;;;;;;-145.68;100.00;63218.00;10496198;28;20192;-59
2022/04/27 18:50:51;;;;;;;6.03;4.30;;;;;;;-145.68;100.00;63218.00;10454423;28;20188;-60
2022/04/27 18:56:50;;;;;;;5.97;4.20;;;;;;;-145.68;100.00;63218.00;10454604;28;20188;-60
2022/04/27 19:02:49;;;;;;;7.10;4.00;;;;;;;-145.68;100.00;63218.00;10454266;28;20219;-58
2022/04/27 19:08:47;;;;;;;5.77;3.87;;;;;;;-145.68;100.00;63218.00;10453263;28;20704;-58
2022/04/27 19:14:47;;;;;;;4.57;3.77;;;;;;;-145.68;100.00;63218.00;10453088;28;20209;-58
2022/04/27 19:20:46;;;;;;;8.20;4.30;;;;;;;-145.68;100.00;63218.00;10453118;28;20203;-59
2022/04/27 19:26:47;;;;;;;9.27;4.90;;;;;;;-145.68;100.00;63218.00;10430683;28;20265;-53
2022/04/27 19:32:46;;;;;;;5.10;4.10;;;;;;;-145.68;100.00;63218.00;10452624;28;20605;-59
2022/04/27 19:38:48;;;;;;;5.97;4.27;;;;;;;-145.68;100.00;63218.00;10452987;28;20196;-55
2022/04/27 19:44:47;;;;;;;7.40;4.63;;;;;;;-145.68;100.00;63218.00;10452733;28;20224;-55
2022/04/27 19:50:46;;;;;;;5.17;3.90;;;;;;;-145.68;100.00;63218.00;10463563;28;20194;-59
2022/04/27 19:56:45;;;;;;;8.60;4.40;;;;;;;-145.68;100.00;63218.00;10482357;28;20215;-58
2022/04/27 20:02:44;;;;;;;6.33;4.90;;;;;;;-145.68;100.00;63218.00;10467033;28;20282;-58
2022/04/27 20:08:44;;;;;;;6.00;4.50;;;;;;;-145.68;100.00;63218.00;10466490;28;20191;-59
2022/04/27 20:14:43;;;;;;;5.83;4.50;;;;;;;-145.68;100.00;63218.00;10450433;28;20239;-59
2022/04/27 20:20:42;;;;;;;6.03;4.83;;;;;;;-145.68;100.00;63218.00;10450832;28;20192;-58
2022/04/27 20:26:41;;;;;;;7.70;3.97;;;;;;;-145.68;100.00;63218.00;10451238;28;20706;-57
2022/04/27 20:32:40;;;;;;;5.90;4.10;;;;;;;-145.68;100.00;63218.00;10451584;28;20258;-55
2022/04/27 20:38:43;;;;;;;9.23;5.27;;;;;;;-145.68;100.00;63218.00;10451412;28;20188;-53
2022/04/27 20:44:42;;;;;;;7.10;4.50;;;;;;;-145.68;100.00;63218.00;10451313;28;20663;-57
2022/04/27 20:50:41;;;;;;;6.03;4.63;;;;;;;-145.68;100.00;63218.00;10451397;28;20200;-58
2022/04/27 20:56:40;;;;;;;5.73;4.67;;;;;;;-145.68;100.00;63218.00;10451062;28;20728;-59
2022/04/27 21:02:39;;;;;;;7.63;4.63;;;;;;;-145.68;100.00;63218.00;10450586;28;20289;-60
2022/04/27 21:08:39;;;;;;;12.07;5.43;;;;;;;-145.68;100.00;63218.00;10450100;28;20203;-60
2022/04/27 21:14:37;;;;;;;6.17;5.00;;;;;;;-145.68;100.00;63218.00;10450209;28;20212;-60
2022/04/27 21:20:37;;;;;;;6.17;4.23;;;;;;;-145.68;100.00;63218.00;10450959;28;20188;-59
2022/04/27 21:26:35;;;;;;;6.30;5.13;;;;;;;-145.68;100.00;63218.00;10450819;28;20220;-60
2022/04/27 21:32:34;;;;;;;7.27;5.40;;;;;;;-145.68;100.00;63218.00;10457364;28;20224;-59
2022/04/27 21:38:33;;;;;;;8.83;4.47;;;;;;;-145.68;100.00;63218.00;10458234;28;20281;-54
2022/04/27 21:44:32;;;;;;;11.33;5.43;;;;;;;-145.68;100.00;63218.00;10457984;28;20250;-57
2022/04/27 21:50:32;;;;;;;6.03;4.67;;;;;;;-145.68;100.00;63218.00;10452394;28;20191;-56
2022/04/27 21:56:31;;;;;;;9.97;5.37;;;;;;;-145.68;100.00;63218.00;10457193;28;20694;-56
2022/04/27 22:02:30;;;;;;;10.63;5.53;;;;;;;-145.68;100.00;63218.00;10456790;28;20255;-55
2022/04/27 22:08:29;;;;;;;6.93;4.83;;;;;;;-145.68;100.00;63218.00;10456560;28;20882;-54
2022/04/27 22:14:28;;;;;;;8.73;4.73;;;;;;;-145.68;100.00;63218.00;10455865;28;20216;-57
2022/04/27 22:20:27;;;;;;;6.73;4.83;;;;;;;-145.68;100.00;63218.00;10455902;28;20614;-56
2022/04/27 22:26:26;;;;;;;7.60;5.50;;;;;;;-145.68;100.00;63218.00;10455335;28;20274;-52
2022/04/27 22:32:25;;;;;;;8.63;5.70;;;;;;;-145.68;100.00;63218.00;10455230;28;20239;-54
2022/04/27 22:38:24;;;;;;;6.30;4.93;;;;;;;-145.68;100.00;63218.00;10455167;28;20632;-53
2022/04/27 22:44:23;;;;;;;7.33;4.53;;;;;;;-145.68;100.00;63218.00;10453794;28;20235;-53
2022/04/27 22:50:22;;;;;;;7.53;4.90;;;;;;;-145.68;100.00;63218.00;10454844;28;20203;-53
2022/04/27 22:56:21;;;;;;;8.83;4.97;;;;;;;-145.68;100.00;63218.00;10454646;28;20212;-53
2022/04/27 23:02:20;;;;;;;7.07;5.57;;;;;;;-145.68;100.00;63218.00;10454495;28;20235;-53
2022/04/27 23:14:46;;;;;;;6.60;5.37;;;;;;;-145.68;100.00;63218.00;10453673;28;20701;-54
2022/04/27 23:20:45;;;;;;;7.60;5.00;;;;;;;-145.68;100.00;63218.00;10453578;28;20191;-54
2022/04/27 23:26:44;;;;;;;9.07;5.23;;;;;;;-145.68;100.00;63218.00;10453267;28;20216;-52
2022/04/27 23:32:43;;;;;;;6.03;4.83;;;;;;;-145.68;100.00;63218.00;10453028;28;20782;-53
2022/04/27 23:38:42;;;;;;;6.67;4.77;;;;;;;-145.68;100.00;63218.00;10465708;28;20188;-58
2022/04/27 23:44:41;;;;;;;11.13;4.90;;;;;;;-145.68;100.00;63218.00;10472065;28;20228;-56
2022/04/27 23:50:40;;;;;;;7.23;5.30;;;;;;;-145.68;100.00;63218.00;10452649;28;20187;-57
2022/04/27 23:56:39;;;;;;;7.33;4.20;;;;;;;-145.68;100.00;63218.00;10452591;28;20236;-54
